createdAt,value
2022-09-20T00:01:08.408Z,1.05
2022-09-20T00:03:40.063Z,1.10
2022-09-20T00:06:09.361Z,1.00
2022-09-20T00:08:36.263Z,1.55
2022-09-20T00:11:08.996Z,1.00
2022-09-20T00:13:37.023Z,0.80
2022-09-20T00:16:08.612Z,0.60
2022-09-20T00:18:37.065Z,0.70
2022-09-20T00:21:04.863Z,0.80
2022-09-20T00:23:33.057Z,0.75
2022-09-20T00:26:04.475Z,1.00
2022-09-20T00:28:33.184Z,0.80
2022-09-20T00:30:59.958Z,1.83
2022-09-20T00:33:50.081Z,1.00
2022-09-20T00:36:16.623Z,1.10
2022-09-20T00:38:43.571Z,1.10
2022-09-20T00:41:10.566Z,1.30
2022-09-20T00:43:43.655Z,1.00
2022-09-20T00:46:28.177Z,1.10
2022-09-20T00:49:03.541Z,1.35
2022-09-20T00:51:34.539Z,1.33
2022-09-20T00:54:04.804Z,1.25
2022-09-20T00:56:35.143Z,1.20
2022-09-20T00:59:17.248Z,1.10
2022-09-20T01:01:48.215Z,1.30
2022-09-20T01:04:16.516Z,1.38
2022-09-20T01:06:45.599Z,1.40
2022-09-20T01:09:12.529Z,1.13
2022-09-20T01:11:40.802Z,1.30
2022-09-20T01:14:08.063Z,1.15
2022-09-20T01:16:36.222Z,1.38
2022-09-20T01:19:15.271Z,1.08
2022-09-20T01:21:42.288Z,1.10
2022-09-20T01:24:30.463Z,1.25
2022-09-20T01:27:13.114Z,1.20
2022-09-20T01:30:18.815Z,1.20
2022-09-20T01:33:06.182Z,1.10
2022-09-20T01:35:35.369Z,1.10
2022-09-20T01:38:08.255Z,1.10
2022-09-20T01:41:12.671Z,1.30
2022-09-20T01:43:52.873Z,1.25
2022-09-20T01:46:37.417Z,1.73
2022-09-20T01:49:12.659Z,1.10
2022-09-20T01:52:34.875Z,1.10
2022-09-20T01:55:12.237Z,1.20
2022-09-20T01:57:50.403Z,1.23
2022-09-20T02:00:31.378Z,1.17
2022-09-20T02:03:16.822Z,1.35
2022-09-20T02:06:17.011Z,1.13
2022-09-20T02:09:20.637Z,1.48
2022-09-20T02:11:59.571Z,1.02
2022-09-20T02:14:38.573Z,1.05
2022-09-20T02:17:16.356Z,1.00
2022-09-20T02:19:54.052Z,1.10
2022-09-20T02:22:31.644Z,1.05
2022-09-20T02:25:22.422Z,1.35
2022-09-20T02:28:12.765Z,1.60
2022-09-20T02:31:24.799Z,1.20
2022-09-20T02:34:09.483Z,1.17
2022-09-20T02:37:00.114Z,1.15
2022-09-20T02:39:36.855Z,1.20
2022-09-20T02:42:12.938Z,0.93
2022-09-20T02:45:02.985Z,1.20
2022-09-20T02:47:43.670Z,1.30
2022-09-20T02:50:45.795Z,1.67
2022-09-20T02:53:37.284Z,1.80
2022-09-20T02:56:37.827Z,1.80
2022-09-20T02:59:09.677Z,1.50
2022-09-20T03:02:00.875Z,1.50
2022-09-20T03:05:03.805Z,1.42
2022-09-20T03:07:50.741Z,1.65
2022-09-20T03:10:27.983Z,1.10
2022-09-20T03:13:25.349Z,1.00
2022-09-20T03:16:13.121Z,1.70
2022-09-20T03:19:16.102Z,1.27
2022-09-20T03:22:01.808Z,1.75
2022-09-20T03:25:09.597Z,2.25
2022-09-20T03:28:14.533Z,2.50
2022-09-20T03:30:54.436Z,1.90
2022-09-20T03:33:47.803Z,1.73
2022-09-20T03:36:41.118Z,1.95
2022-09-20T03:39:50.531Z,1.52
2022-09-20T03:42:27.247Z,1.40
2022-09-20T03:45:23.155Z,1.20
2022-09-20T03:48:27.026Z,1.40
2022-09-20T03:51:12.835Z,1.52
2022-09-20T03:54:01.847Z,1.48
2022-09-20T03:56:59.047Z,1.50
2022-09-20T03:59:44.048Z,1.55
2022-09-20T04:02:36.732Z,1.90
2022-09-20T04:05:10.405Z,1.42
2022-09-20T04:08:05.693Z,1.35
2022-09-20T04:11:17.845Z,1.40
2022-09-20T04:14:12.368Z,1.55
2022-09-20T04:16:55.979Z,1.70
2022-09-20T04:20:01.145Z,1.33
2022-09-20T04:22:30.021Z,1.20
2022-09-20T04:25:04.549Z,1.70
2022-09-20T04:27:44.900Z,1.80
2022-09-20T04:30:24.142Z,1.95
2022-09-20T04:33:11.283Z,2.70
2022-09-20T04:36:28.701Z,2.55
2022-09-20T04:39:03.560Z,2.92
2022-09-20T04:42:04.099Z,3.35
2022-09-20T04:45:21.238Z,3.45
2022-09-20T04:48:20.479Z,4.57
2022-09-20T04:50:59.077Z,4.90
2022-09-20T04:54:08.313Z,4.50
2022-09-20T04:56:56.846Z,4.07
2022-09-20T05:00:01.005Z,5.50
2022-09-20T05:03:12.082Z,6.32
2022-09-20T05:06:15.567Z,15.68
2022-09-20T05:08:59.001Z,15.93
2022-09-20T05:11:31.753Z,13.07
2022-09-20T05:14:48.976Z,16.73
2022-09-20T05:17:51.614Z,14.40
2022-09-20T05:20:49.111Z,13.80
2022-09-20T05:23:45.486Z,14.30
2022-09-20T05:26:24.724Z,14.43
2022-09-20T05:29:10.390Z,22.15
2022-09-20T05:32:06.786Z,19.10
2022-09-20T05:35:03.671Z,19.20
2022-09-20T05:37:55.745Z,21.10
2022-09-20T05:40:41.200Z,19.75
2022-09-20T05:43:16.454Z,18.33
2022-09-20T05:46:07.927Z,19.70
2022-09-20T05:48:57.228Z,18.10
2022-09-20T05:52:07.161Z,19.58
2022-09-20T05:54:47.413Z,18.00
2022-09-20T05:57:56.452Z,22.42
2022-09-20T06:00:28.988Z,20.25
2022-09-20T06:03:34.175Z,22.20
2022-09-20T06:06:32.407Z,22.58
2022-09-20T06:09:25.977Z,21.92
2022-09-20T06:12:00.833Z,22.20
2022-09-20T06:14:53.881Z,20.02
2022-09-20T06:17:43.758Z,24.42
2022-09-20T06:20:25.242Z,18.55
2022-09-20T06:22:55.721Z,18.05
2022-09-20T06:25:31.126Z,17.63
2022-09-20T06:28:13.471Z,18.77
2022-09-20T06:30:51.638Z,20.13
2022-09-20T06:33:26.409Z,18.65
2022-09-20T06:36:19.488Z,22.17
2022-09-20T06:39:25.691Z,29.20
2022-09-20T06:41:52.698Z,20.65
2022-09-20T06:44:19.207Z,18.50
2022-09-20T06:46:45.748Z,14.43
2022-09-20T06:49:12.278Z,19.30
2022-09-20T06:51:39.741Z,16.35
2022-09-20T06:54:11.711Z,17.70
2022-09-20T06:56:38.490Z,16.67
2022-09-20T06:59:10.354Z,15.73
2022-09-20T07:01:37.718Z,16.65
2022-09-20T07:04:06.278Z,17.15
2022-09-20T07:06:33.540Z,14.77
2022-09-20T07:09:00.612Z,14.95
2022-09-20T07:11:27.746Z,12.90
2022-09-20T07:13:56.869Z,12.90
2022-09-20T07:16:24.191Z,14.48
2022-09-20T07:18:52.498Z,16.95
2022-09-20T07:21:20.775Z,18.00
2022-09-20T07:23:49.924Z,17.58
2022-09-20T07:26:19.862Z,19.10
2022-09-20T07:28:46.826Z,17.75
2022-09-20T07:31:13.620Z,16.77
2022-09-20T07:33:40.216Z,16.60
2022-09-20T07:36:07.082Z,14.23
2022-09-20T07:38:33.994Z,17.20
2022-09-20T07:41:02.231Z,17.20
2022-09-20T07:43:30.757Z,18.52
2022-09-20T07:45:59.663Z,19.10
2022-09-20T07:48:29.194Z,16.45
2022-09-20T07:51:11.281Z,17.35
2022-09-20T07:53:38.887Z,14.57
2022-09-20T07:56:15.715Z,17.45
2022-09-20T07:58:43.456Z,16.80
2022-09-20T08:01:12.612Z,14.48
2022-09-20T08:03:40.407Z,14.07
2022-09-20T08:06:10.271Z,12.73
2022-09-20T08:08:38.934Z,11.85
2022-09-20T08:11:17.487Z,11.70
2022-09-20T08:14:18.199Z,11.20
2022-09-20T08:16:40.280Z,11.77
2022-09-20T08:19:07.085Z,10.48
2022-09-20T08:21:35.791Z,9.73
2022-09-20T08:24:03.838Z,10.15
2022-09-20T08:26:31.518Z,11.43
2022-09-20T08:29:00.140Z,11.55
2022-09-20T08:31:31.510Z,9.32
2022-09-20T08:33:59.155Z,9.32
2022-09-20T08:36:28.175Z,7.75
2022-09-20T08:41:47.588Z,7.30
2022-09-20T08:44:35.155Z,6.82
2022-09-20T08:47:22.404Z,5.68
2022-09-20T08:49:56.754Z,5.85
2022-09-20T08:52:37.426Z,6.20
2022-09-20T08:55:17.192Z,5.53
2022-09-20T08:57:47.787Z,4.93
2022-09-20T09:00:26.701Z,4.00
2022-09-20T09:02:57.121Z,4.13
2022-09-20T09:05:37.436Z,3.38
2022-09-20T09:08:16.601Z,2.97
2022-09-20T09:10:54.521Z,2.50
2022-09-20T09:13:48.768Z,2.20
2022-09-20T09:16:23.088Z,2.25
2022-09-20T09:18:51.970Z,1.92
2022-09-20T09:21:22.781Z,1.55
2022-09-20T09:24:09.845Z,1.95
2022-09-20T09:26:39.379Z,1.55
2022-09-20T09:29:17.955Z,1.60
2022-09-20T09:31:50.185Z,1.63
2022-09-20T09:34:31.627Z,1.70
2022-09-20T09:36:59.500Z,1.60
2022-09-20T09:39:38.177Z,1.23
2022-09-20T09:42:23.909Z,1.30
2022-09-20T09:44:50.846Z,1.45
2022-09-20T09:47:28.035Z,1.63
2022-09-20T09:50:03.688Z,1.25
2022-09-20T09:52:33.950Z,1.70
2022-09-20T09:55:05.894Z,2.05
2022-09-20T09:57:43.415Z,1.50
2022-09-20T10:00:19.477Z,1.50
2022-09-20T10:03:17.104Z,1.23
2022-09-20T10:06:00.109Z,1.27
2022-09-20T10:08:54.414Z,1.63
2022-09-20T10:11:49.703Z,1.55
2022-09-20T10:14:44.242Z,1.05
2022-09-20T10:17:36.729Z,1.40
2022-09-20T10:20:22.414Z,1.00
2022-09-20T10:26:22.516Z,1.58
2022-09-20T10:28:58.710Z,1.40
2022-09-20T10:31:35.488Z,1.00
2022-09-20T10:34:18.982Z,1.45
2022-09-20T10:36:57.923Z,1.10
2022-09-20T10:39:27.644Z,1.05
2022-09-20T10:42:53.719Z,1.00
2022-09-20T10:48:51.894Z,0.90
2022-09-20T10:51:39.882Z,1.23
2022-09-20T10:54:24.846Z,1.20
2022-09-20T10:56:59.298Z,1.20
2022-09-20T10:59:40.492Z,0.88
2022-09-20T11:02:23.765Z,1.02
2022-09-20T11:05:15.841Z,1.13
2022-09-20T11:07:59.966Z,1.50
2022-09-20T11:10:47.558Z,1.00
2022-09-20T11:13:42.213Z,1.13
2022-09-20T11:16:18.036Z,1.55
2022-09-20T11:19:18.873Z,1.50
2022-09-20T11:21:54.119Z,1.55
2022-09-20T11:24:36.826Z,1.30
2022-09-20T11:27:32.661Z,1.52
2022-09-20T11:30:04.327Z,1.90
2022-09-20T11:32:37.044Z,1.00
2022-09-20T11:35:21.007Z,1.20
2022-09-20T11:37:57.409Z,1.15
2022-09-20T11:40:35.632Z,1.25
2022-09-20T11:43:06.401Z,1.23
2022-09-20T11:45:34.509Z,1.42
2022-09-20T11:48:25.976Z,1.08
2022-09-20T11:51:16.587Z,1.20
2022-09-20T11:54:10.521Z,1.00
2022-09-20T11:56:38.861Z,1.38
2022-09-20T11:59:23.098Z,1.13
2022-09-20T12:01:56.520Z,0.90
2022-09-20T12:04:32.793Z,0.90
2022-09-20T12:07:02.449Z,1.20
2022-09-20T12:09:36.778Z,0.93
2022-09-20T12:12:25.839Z,1.10
2022-09-20T12:14:55.789Z,1.15
2022-09-20T12:17:44.144Z,1.38
2022-09-20T12:20:33.152Z,1.30
2022-09-20T12:23:40.794Z,0.70
2022-09-20T12:26:13.393Z,0.80
2022-09-20T12:28:54.142Z,1.15
2022-09-20T12:31:29.885Z,0.88
2022-09-20T12:34:00.927Z,0.90
2022-09-20T12:36:30.106Z,0.90
2022-09-20T12:39:23.332Z,0.93
2022-09-20T12:41:59.230Z,1.00
2022-09-20T12:44:37.755Z,0.90
2022-09-20T12:47:09.572Z,0.95
2022-09-20T12:50:04.176Z,0.60
2022-09-20T12:52:58.325Z,0.80
2022-09-20T12:55:50.754Z,0.68
2022-09-20T12:58:28.816Z,1.17
2022-09-20T13:01:04.692Z,1.10
2022-09-20T13:03:39.884Z,0.90
2022-09-20T13:06:12.526Z,0.90
2022-09-20T13:09:01.561Z,1.25
2022-09-20T13:11:45.619Z,0.95
2022-09-20T13:14:15.242Z,1.08
2022-09-20T13:16:53.234Z,1.42
2022-09-20T13:19:29.580Z,1.10
2022-09-20T13:22:11.470Z,1.13
2022-09-20T13:24:41.989Z,1.10
2022-09-20T13:27:37.605Z,1.00
2022-09-20T13:30:22.547Z,1.00
2022-09-20T13:32:51.364Z,1.52
2022-09-20T13:35:32.309Z,0.80
2022-09-20T13:38:02.808Z,0.93
2022-09-20T13:40:35.389Z,0.90
2022-09-20T13:43:22.687Z,0.90
2022-09-20T13:45:54.160Z,1.05
2022-09-20T13:48:25.193Z,0.90
2022-09-20T13:50:53.748Z,0.80
2022-09-20T13:53:40.232Z,1.20
2022-09-20T13:56:17.418Z,0.63
2022-09-20T13:58:44.478Z,0.90
2022-09-20T14:01:28.918Z,0.95
2022-09-20T14:04:08.176Z,0.73
2022-09-20T14:06:35.643Z,0.70
2022-09-20T14:09:10.748Z,1.00
2022-09-20T14:11:39.521Z,0.70
2022-09-20T14:14:08.279Z,1.02
2022-09-20T14:16:39.919Z,0.90
2022-09-20T14:19:08.517Z,1.10
2022-09-20T14:21:37.041Z,1.30
2022-09-20T14:24:25.723Z,0.70
2022-09-20T14:27:19.166Z,0.93
2022-09-20T14:29:51.436Z,0.73
2022-09-20T14:32:18.323Z,0.60
2022-09-20T14:34:59.209Z,0.70
2022-09-20T14:37:30.865Z,1.00
2022-09-20T14:40:15.991Z,0.70
2022-09-20T14:42:46.393Z,0.82
2022-09-20T14:45:34.371Z,0.60
2022-09-20T14:48:11.798Z,1.00
2022-09-20T14:50:40.034Z,1.05
2022-09-20T14:53:12.947Z,1.02
2022-09-20T14:56:19.483Z,0.73
2022-09-20T14:59:05.409Z,1.20
2022-09-20T15:01:33.131Z,1.10
2022-09-20T15:04:06.028Z,0.80
2022-09-20T15:06:35.638Z,1.05
2022-09-20T15:09:02.182Z,1.08
2022-09-20T15:11:30.264Z,0.95
2022-09-20T15:13:56.788Z,0.75
2022-09-20T15:16:24.198Z,0.90
2022-09-20T15:18:51.286Z,0.60
2022-09-20T15:21:17.962Z,0.60
2022-09-20T15:23:44.875Z,0.70
2022-09-20T15:26:13.520Z,0.70
2022-09-20T15:28:40.819Z,0.77
2022-09-20T15:31:07.409Z,0.75
2022-09-20T15:33:34.372Z,0.80
2022-09-20T15:36:04.927Z,0.70
2022-09-20T15:38:31.975Z,0.90
2022-09-20T15:41:03.372Z,0.60
2022-09-20T15:43:30.931Z,0.50
2022-09-20T15:46:03.363Z,0.80
2022-09-20T15:48:30.795Z,1.38
2022-09-20T15:51:06.171Z,1.05
2022-09-20T15:53:39.361Z,0.60
2022-09-20T15:56:15.381Z,0.70
2022-09-20T15:58:47.113Z,0.90
2022-09-20T16:01:18.151Z,0.90
2022-09-20T16:03:46.271Z,0.75
2022-09-20T16:06:13.256Z,0.85
2022-09-20T16:08:42.688Z,0.57
2022-09-20T16:11:12.967Z,0.65
2022-09-20T16:13:39.672Z,0.63
2022-09-20T16:16:09.231Z,0.65
2022-09-20T16:18:55.367Z,0.70
2022-09-20T16:21:23.129Z,1.00
2022-09-20T16:23:51.795Z,1.00
2022-09-20T16:26:19.572Z,0.70
2022-09-20T16:28:47.862Z,0.80
2022-09-20T16:31:41.192Z,0.70
2022-09-20T16:34:19.573Z,1.00
2022-09-20T16:36:49.229Z,0.57
2022-09-20T16:39:17.248Z,1.17
2022-09-20T16:41:47.483Z,0.80
2022-09-20T16:44:15.221Z,0.80
2022-09-20T16:46:42.425Z,0.80
2022-09-20T16:49:11.430Z,1.33
2022-09-20T16:51:40.095Z,1.08
2022-09-20T16:54:12.497Z,1.55
2022-09-20T16:56:41.970Z,1.50
2022-09-20T16:59:09.549Z,1.23
2022-09-20T17:01:38.419Z,1.13
2022-09-20T17:04:05.409Z,1.08
2022-09-20T17:06:35.000Z,1.23
2022-09-20T17:09:02.563Z,1.13
2022-09-20T17:11:31.982Z,1.50
2022-09-20T17:13:58.646Z,2.17
2022-09-20T17:16:32.706Z,2.75
2022-09-20T17:19:01.739Z,4.45
2022-09-20T17:21:29.910Z,5.20
2022-09-20T17:23:59.095Z,4.20
2022-09-20T17:26:34.503Z,4.15
2022-09-20T17:29:03.549Z,4.15
2022-09-20T17:31:33.898Z,5.03
2022-09-20T17:34:07.645Z,5.32
2022-09-20T17:36:45.687Z,5.68
2022-09-20T17:39:13.793Z,4.80
2022-09-20T17:41:43.206Z,4.13
2022-09-20T17:44:11.756Z,3.60
2022-09-20T17:46:41.977Z,2.53
2022-09-20T17:49:13.894Z,2.08
2022-09-20T17:51:46.326Z,1.85
2022-09-20T17:54:13.961Z,2.30
2022-09-20T17:56:46.620Z,2.70
2022-09-20T17:59:16.033Z,2.17
2022-09-20T18:01:44.187Z,2.25
2022-09-20T18:04:11.854Z,2.17
2022-09-20T18:06:56.533Z,1.73
2022-09-20T18:09:25.635Z,1.90
2022-09-20T18:11:54.093Z,2.25
2022-09-20T18:14:24.689Z,2.10
2022-09-20T18:16:52.939Z,2.03
2022-09-20T18:19:22.886Z,1.70
2022-09-20T18:21:49.854Z,1.92
2022-09-20T18:24:16.425Z,1.70
2022-09-20T18:26:44.406Z,2.40
2022-09-20T18:29:18.227Z,2.58
2022-09-20T18:31:54.665Z,2.45
2022-09-20T18:34:23.113Z,3.38
2022-09-20T18:36:55.376Z,3.10
2022-09-20T18:39:23.779Z,2.67
2022-09-20T18:41:51.175Z,3.30
2022-09-20T18:44:18.429Z,2.88
2022-09-20T18:46:46.370Z,2.83
2022-09-20T18:49:15.384Z,2.92
2022-09-20T18:51:43.983Z,3.80
2022-09-20T18:54:13.219Z,3.72
2022-09-20T18:56:45.205Z,2.85
2022-09-20T18:59:20.067Z,3.03
2022-09-20T19:02:00.563Z,2.15
2022-09-20T19:04:51.990Z,1.65
2022-09-20T19:07:27.784Z,2.10
2022-09-20T19:10:03.085Z,1.75
2022-09-20T19:12:50.159Z,1.60
2022-09-20T19:15:56.583Z,2.05
2022-09-20T19:18:38.609Z,2.53
2022-09-20T19:21:27.049Z,2.90
2022-09-20T19:24:32.506Z,2.50
2022-09-20T19:26:59.307Z,3.13
2022-09-20T19:29:28.816Z,3.70
2022-09-20T19:31:58.002Z,2.92
2022-09-20T19:34:30.775Z,3.28
2022-09-20T19:37:18.987Z,4.05
2022-09-20T19:40:11.581Z,3.58
2022-09-20T19:43:05.437Z,3.58
2022-09-20T19:46:12.224Z,4.00
2022-09-20T19:48:54.317Z,4.18
2022-09-20T19:51:22.288Z,4.57
2022-09-20T19:53:49.757Z,4.30
2022-09-20T19:56:46.484Z,4.47
2022-09-20T19:59:15.122Z,5.10
2022-09-20T20:01:41.983Z,4.78
2022-09-20T20:04:09.240Z,4.60
2022-09-20T20:07:08.241Z,4.60
2022-09-20T20:09:56.555Z,3.55
2022-09-20T20:12:59.119Z,3.10
2022-09-20T20:15:52.468Z,2.47
2022-09-20T20:18:32.987Z,2.30
2022-09-20T20:21:00.031Z,2.30
2022-09-20T20:24:05.960Z,2.03
2022-09-20T20:26:32.758Z,2.35
2022-09-20T20:29:00.092Z,2.10
2022-09-20T20:31:27.540Z,2.75
2022-09-20T20:33:55.009Z,2.38
2022-09-20T20:36:21.602Z,3.60
2022-09-20T20:38:52.010Z,3.30
2022-09-20T20:41:21.645Z,3.30
2022-09-20T20:43:52.143Z,2.65
2022-09-20T20:46:18.959Z,2.55
2022-09-20T20:48:47.143Z,2.30
2022-09-20T20:51:16.906Z,2.03
2022-09-20T20:53:49.245Z,1.95
2022-09-20T20:56:28.889Z,1.70
2022-09-20T20:59:00.661Z,2.42
2022-09-20T21:01:31.670Z,1.77
2022-09-20T21:03:59.731Z,1.75
2022-09-20T21:06:29.094Z,1.63
2022-09-20T21:08:56.199Z,1.65
2022-09-20T21:11:25.542Z,1.80
2022-09-20T21:13:53.377Z,1.55
2022-09-20T21:16:22.743Z,1.60
2022-09-20T21:18:50.819Z,1.70
2022-09-20T21:21:26.980Z,1.33
2022-09-20T21:23:55.928Z,1.40
2022-09-20T21:26:24.850Z,1.67
2022-09-20T21:28:53.832Z,1.50
2022-09-20T21:31:22.725Z,1.30
2022-09-20T21:33:49.744Z,1.60
2022-09-20T21:36:19.537Z,1.88
2022-09-20T21:38:46.461Z,2.08
2022-09-20T21:41:18.624Z,2.03
2022-09-20T21:43:47.111Z,2.22
2022-09-20T21:46:16.161Z,2.28
2022-09-20T21:48:43.313Z,1.90
2022-09-20T21:51:11.742Z,1.80
2022-09-20T21:53:39.242Z,2.13
2022-09-20T21:56:08.714Z,2.38
2022-09-20T21:58:35.543Z,1.85
2022-09-20T22:01:10.361Z,2.20
2022-09-20T22:03:48.125Z,2.10
2022-09-20T22:06:20.542Z,1.90
2022-09-20T22:09:01.881Z,1.80
2022-09-20T22:11:31.435Z,1.83
2022-09-20T22:13:58.867Z,1.60
2022-09-20T22:16:31.644Z,1.50
2022-09-20T22:19:01.878Z,1.95
2022-09-20T22:21:30.729Z,1.92
2022-09-20T22:24:01.092Z,1.38
2022-09-20T22:26:30.399Z,1.70
2022-09-20T22:28:57.857Z,1.25
2022-09-20T22:31:32.867Z,1.40
2022-09-20T22:34:06.231Z,1.85
2022-09-20T22:36:38.831Z,1.80
2022-09-20T22:39:07.824Z,1.65
2022-09-20T22:41:35.806Z,1.58
2022-09-20T22:44:03.194Z,1.38
2022-09-20T22:46:31.181Z,1.50
2022-09-20T22:48:57.890Z,1.85
2022-09-20T22:51:31.671Z,1.90
2022-09-20T22:53:58.157Z,2.13
2022-09-20T22:56:30.010Z,2.10
2022-09-20T22:58:59.983Z,1.70
2022-09-20T23:01:29.800Z,2.20
2022-09-20T23:04:01.909Z,2.10
2022-09-20T23:06:31.659Z,1.95
2022-09-20T23:09:01.640Z,2.10
2022-09-20T23:11:29.189Z,1.60
2022-09-20T23:13:58.799Z,1.55
2022-09-20T23:16:28.173Z,2.00
2022-09-20T23:18:56.971Z,2.00
2022-09-20T23:21:24.490Z,1.88
2022-09-20T23:23:59.419Z,2.08
2022-09-20T23:26:27.867Z,1.60
2022-09-20T23:28:57.912Z,1.73
2022-09-20T23:31:26.060Z,1.83
2022-09-20T23:33:58.282Z,1.90
2022-09-20T23:36:27.177Z,1.98
2022-09-20T23:38:54.203Z,1.67
2022-09-20T23:41:23.678Z,1.60
2022-09-20T23:43:50.597Z,1.45
2022-09-20T23:46:19.259Z,1.70
2022-09-20T23:48:46.547Z,1.60
2022-09-20T23:51:15.699Z,1.63
2022-09-20T23:53:42.980Z,1.90
2022-09-20T23:56:11.110Z,2.03
2022-09-20T23:58:39.113Z,1.38
